Time;durP1;ratioP1;P1;durP2;ratioP2;P2;SDS_P1;SDS_P2;PMS_P1;PMS_P2;Temp;Humidity;BMP_temperature;BMP_pressure;BME280_temperature;BME280_humidity;BME280_pressure;Samples;Min_cycle;Max_cycle;Signal;HPM_P1;HPM_P2
2024/02/21 00:00:11;;;;;;;7.68;4.05;;;12.80;90.30;;;;;;5011577;28;20022;-77
2024/02/21 00:02:37;;;;;;;7.60;3.75;;;12.80;90.40;;;;;;5012408;28;20018;-78
2024/02/21 00:05:02;;;;;;;7.10;3.83;;;12.80;90.40;;;;;;5011468;28;20072;-78
2024/02/21 00:07:28;;;;;;;7.35;3.70;;;12.80;90.40;;;;;;5011469;28;20029;-78
2024/02/21 00:09:53;;;;;;;7.95;3.75;;;12.80;90.40;;;;;;5011091;28;20072;-79
2024/02/21 00:12:19;;;;;;;7.47;4.00;;;12.80;90.40;;;;;;5011263;28;20030;-79
2024/02/21 00:14:44;;;;;;;7.30;3.75;;;12.80;90.40;;;;;;5011269;28;20113;-78
2024/02/21 00:17:10;;;;;;;7.05;3.70;;;12.80;90.40;;;;;;5011132;28;20033;-78
2024/02/21 00:19:35;;;;;;;7.85;3.97;;;12.80;90.40;;;;;;5011132;28;20465;-78
2024/02/21 00:22:01;;;;;;;6.45;3.83;;;12.80;90.40;;;;;;5011347;28;20026;-78
2024/02/21 00:24:27;;;;;;;7.95;4.05;;;12.80;90.40;;;;;;5011506;28;20056;-78
2024/02/21 00:26:54;;;;;;;7.55;3.55;;;12.80;90.40;;;;;;5012752;28;20398;-78
2024/02/21 00:29:19;;;;;;;6.70;3.63;;;12.70;90.40;;;;;;5012503;28;20030;-79
2024/02/21 00:31:44;;;;;;;7.88;4.00;;;12.80;90.40;;;;;;5013374;28;20033;-77
2024/02/21 00:34:12;;;;;;;9.05;4.22;;;12.80;90.40;;;;;;5014898;28;20030;-78
2024/02/21 00:36:37;;;;;;;7.30;4.20;;;12.80;90.40;;;;;;5016218;28;20045;-78
2024/02/21 00:39:04;;;;;;;8.43;4.30;;;12.80;90.40;;;;;;5014889;28;20583;-78
2024/02/21 00:41:29;;;;;;;7.30;3.90;;;12.80;90.40;;;;;;5014923;28;20022;-78
2024/02/21 00:43:55;;;;;;;8.27;4.00;;;12.80;90.40;;;;;;5016021;28;20485;-79
2024/02/21 00:46:20;;;;;;;6.95;3.72;;;12.80;90.40;;;;;;5016323;28;20080;-80
2024/02/21 00:48:45;;;;;;;7.75;4.35;;;12.80;90.40;;;;;;5014769;28;20028;-78
2024/02/21 00:51:11;;;;;;;7.63;3.95;;;12.80;90.40;;;;;;5031311;28;20022;-78
2024/02/21 00:53:38;;;;;;;7.80;4.20;;;12.80;90.40;;;;;;5014689;28;20475;-78
2024/02/21 00:56:07;;;;;;;7.70;4.25;;;12.80;90.40;;;;;;5014492;28;20037;-78
2024/02/21 00:58:32;;;;;;;7.35;3.83;;;12.80;90.40;;;;;;5014271;28;20030;-79
2024/02/21 01:00:58;;;;;;;8.32;4.68;;;12.80;90.40;;;;;;5014730;28;20026;-78
2024/02/21 01:03:23;;;;;;;7.38;4.38;;;12.80;90.30;;;;;;5015751;28;20108;-78
2024/02/21 01:05:49;;;;;;;8.23;4.78;;;12.80;90.40;;;;;;5014329;28;20026;-78
2024/02/21 01:08:14;;;;;;;6.38;3.50;;;12.80;90.40;;;;;;5013760;28;20029;-78
2024/02/21 01:10:40;;;;;;;6.70;3.88;;;12.80;90.40;;;;;;5015572;28;20409;-76
2024/02/21 01:13:07;;;;;;;7.63;4.20;;;12.80;90.40;;;;;;5030760;28;20029;-78
2024/02/21 01:15:33;;;;;;;7.03;3.80;;;12.80;90.40;;;;;;5015532;28;20626;-78
2024/02/21 01:17:58;;;;;;;8.18;3.75;;;12.80;90.40;;;;;;5014346;28;20026;-78
2024/02/21 01:20:24;;;;;;;6.88;4.20;;;12.80;90.50;;;;;;5014182;28;20493;-78
2024/02/21 01:22:49;;;;;;;8.15;4.20;;;12.80;90.50;;;;;;5013902;28;20017;-78
2024/02/21 01:25:15;;;;;;;7.82;4.00;;;12.80;90.50;;;;;;5013908;28;20092;-78
2024/02/21 01:27:40;;;;;;;7.45;3.70;;;12.80;90.50;;;;;;5015008;28;20100;-78
2024/02/21 01:30:06;;;;;;;6.72;3.78;;;12.80;90.50;;;;;;5014032;28;20037;-77
2024/02/21 01:32:32;;;;;;;7.18;4.00;;;12.80;90.50;;;;;;5014988;28;20025;-78
2024/02/21 01:34:57;;;;;;;7.03;4.10;;;12.80;90.50;;;;;;5014002;28;20033;-78
2024/02/21 01:37:23;;;;;;;7.75;4.22;;;12.80;90.50;;;;;;5013772;28;20129;-79
2024/02/21 01:39:49;;;;;;;7.25;4.15;;;12.80;90.50;;;;;;5014996;28;20107;-78
2024/02/21 01:42:14;;;;;;;7.63;4.47;;;12.80;90.50;;;;;;5029775;28;20052;-78
2024/02/21 01:44:41;;;;;;;7.25;4.05;;;12.80;90.50;;;;;;5014137;28;20054;-77
2024/02/21 01:47:07;;;;;;;7.38;4.05;;;12.80;90.50;;;;;;5014125;28;20026;-79
2024/02/21 01:49:33;;;;;;;7.20;4.35;;;12.80;90.50;;;;;;5014711;28;20068;-78
2024/02/21 01:51:59;;;;;;;7.97;4.20;;;12.80;90.50;;;;;;5013586;28;20128;-78
2024/02/21 01:54:28;;;;;;;7.18;4.18;;;12.80;90.50;;;;;;5014822;28;20036;-78
2024/02/21 01:56:54;;;;;;;7.82;4.45;;;12.80;90.50;;;;;;5013469;28;20502;-79
2024/02/21 01:59:21;;;;;;;7.55;4.05;;;12.80;90.40;;;;;;5014634;28;20113;-79
2024/02/21 02:01:47;;;;;;;8.27;4.47;;;12.80;90.50;;;;;;5014855;28;20101;-78
2024/02/21 02:04:13;;;;;;;7.78;4.30;;;12.80;90.50;;;;;;5013398;28;20025;-78
2024/02/21 02:06:39;;;;;;;7.45;4.40;;;12.80;90.50;;;;;;5014575;28;20469;-77
2024/02/21 02:09:05;;;;;;;7.15;4.15;;;12.80;90.50;;;;;;5014193;28;20052;-78
2024/02/21 02:11:32;;;;;;;7.25;4.10;;;12.80;90.50;;;;;;5013225;28;20649;-78
2024/02/21 02:13:57;;;;;;;8.73;4.20;;;12.80;90.50;;;;;;5013139;28;20026;-78
2024/02/21 02:16:23;;;;;;;7.43;4.10;;;12.80;90.40;;;;;;5014476;28;20029;-78
2024/02/21 02:18:48;;;;;;;6.65;4.05;;;12.80;90.40;;;;;;5013028;28;20034;-78
2024/02/21 02:21:53;;;;;;;9.32;4.82;;;12.80;90.30;;;;;;5012841;28;20021;-78
2024/02/21 02:24:19;;;;;;;7.78;4.22;;;12.80;90.40;;;;;;5012068;28;20060;-78
2024/02/21 02:26:45;;;;;;;8.13;4.70;;;12.80;90.40;;;;;;5012767;28;20030;-78
2024/02/21 02:29:10;;;;;;;7.63;3.95;;;12.80;90.40;;;;;;5012768;28;20137;-78
2024/02/21 02:31:37;;;;;;;7.60;4.60;;;12.80;90.40;;;;;;5012799;28;20022;-78
2024/02/21 02:34:03;;;;;;;7.63;4.43;;;12.80;90.40;;;;;;5012771;28;20071;-79
2024/02/21 02:36:29;;;;;;;7.18;4.22;;;12.70;90.40;;;;;;5012758;28;20120;-78
2024/02/21 02:38:54;;;;;;;7.47;4.07;;;12.80;90.40;;;;;;5012604;28;20022;-78
2024/02/21 02:41:20;;;;;;;7.55;4.03;;;12.80;90.40;;;;;;5012693;28;20061;-78
2024/02/21 02:43:45;;;;;;;7.03;4.07;;;12.80;90.40;;;;;;5012887;28;20026;-78
2024/02/21 02:46:11;;;;;;;8.02;4.50;;;12.80;90.40;;;;;;5012896;28;20104;-79
2024/02/21 02:48:38;;;;;;;8.65;4.95;;;12.80;90.40;;;;;;5012668;28;20390;-79
2024/02/21 02:51:03;;;;;;;10.00;5.90;;;12.80;90.20;;;;;;5012349;28;20129;-78
2024/02/21 02:53:29;;;;;;;9.02;5.15;;;12.80;90.30;;;;;;5012501;28;20062;-78
2024/02/21 02:55:54;;;;;;;9.13;5.05;;;12.80;90.20;;;;;;5011795;28;20022;-77
2024/02/21 02:58:21;;;;;;;9.55;5.50;;;12.70;90.10;;;;;;5012295;28;20064;-78
2024/02/21 03:00:46;;;;;;;10.23;6.18;;;12.80;90.20;;;;;;5012432;28;20421;-78
2024/02/21 03:03:12;;;;;;;9.60;5.78;;;12.80;90.00;;;;;;5018653;28;20026;-78
2024/02/21 03:05:37;;;;;;;8.85;5.20;;;12.80;90.00;;;;;;5032642;28;20021;-79
2024/02/21 03:08:06;;;;;;;9.20;5.85;;;12.80;90.10;;;;;;5031561;28;20049;-77
2024/02/21 03:10:32;;;;;;;9.38;5.50;;;12.80;90.00;;;;;;5031709;28;20037;-78
2024/02/21 03:12:58;;;;;;;8.90;5.40;;;12.70;90.10;;;;;;5031746;28;20026;-78
2024/02/21 03:15:24;;;;;;;10.65;6.13;;;12.80;90.10;;;;;;5031578;28;20032;-78
2024/02/21 03:17:49;;;;;;;8.88;5.80;;;12.80;90.10;;;;;;5031733;28;20033;-78
2024/02/21 03:20:15;;;;;;;8.77;5.30;;;12.80;90.10;;;;;;5032760;28;20025;-78
2024/02/21 03:22:41;;;;;;;8.50;5.38;;;12.70;90.10;;;;;;5031725;28;20017;-78
2024/02/21 03:25:08;;;;;;;8.23;5.53;;;12.80;90.10;;;;;;5032898;28;20363;-78
2024/02/21 03:27:33;;;;;;;8.52;5.60;;;12.80;90.10;;;;;;5032772;28;20151;-78
2024/02/21 03:29:59;;;;;;;9.25;5.53;;;12.80;90.10;;;;;;5031620;28;20075;-78
2024/02/21 03:32:24;;;;;;;9.55;5.35;;;12.80;90.00;;;;;;5032562;28;20040;-79
2024/02/21 03:34:50;;;;;;;9.40;5.57;;;12.80;90.20;;;;;;5031581;28;20021;-78
2024/02/21 03:37:15;;;;;;;8.27;5.32;;;12.80;90.20;;;;;;5031582;28;20021;-79
2024/02/21 03:39:41;;;;;;;10.43;5.60;;;12.80;90.20;;;;;;5031215;28;20113;-79
2024/02/21 03:42:07;;;;;;;9.25;5.43;;;12.70;90.20;;;;;;5030707;28;20474;-78
2024/02/21 03:44:32;;;;;;;8.27;5.53;;;12.80;90.30;;;;;;5032402;28;20022;-78
2024/02/21 03:46:59;;;;;;;9.63;5.68;;;12.80;90.30;;;;;;5032509;28;20021;-78
2024/02/21 03:49:25;;;;;;;9.27;5.22;;;12.70;90.30;;;;;;5032475;28;20584;-78
2024/02/21 03:51:50;;;;;;;7.43;4.75;;;12.70;90.30;;;;;;5032477;28;20025;-77
2024/02/21 03:54:16;;;;;;;7.78;4.63;;;12.80;90.40;;;;;;5032667;28;20030;-78
2024/02/21 03:56:41;;;;;;;8.82;5.25;;;12.70;90.40;;;;;;5031255;28;20033;-78
2024/02/21 03:59:08;;;;;;;8.98;5.18;;;12.80;90.40;;;;;;5031391;28;20033;-79
2024/02/21 04:01:34;;;;;;;8.93;5.10;;;12.80;90.40;;;;;;5031234;28;20022;-79
2024/02/21 04:04:00;;;;;;;8.15;4.78;;;12.80;90.40;;;;;;5031163;28;20033;-79
2024/02/21 04:06:25;;;;;;;8.40;5.00;;;12.80;90.50;;;;;;5031546;28;20025;-79
2024/02/21 04:08:50;;;;;;;8.40;5.00;;;12.80;90.50;;;;;;5034554;28;20034;-79
2024/02/21 04:11:17;;;;;;;8.52;5.30;;;12.70;90.40;;;;;;5036396;28;20501;-79
2024/02/21 04:13:42;;;;;;;8.25;5.15;;;12.80;90.40;;;;;;5036366;28;20021;-78
2024/02/21 04:16:08;;;;;;;8.02;4.88;;;12.80;90.50;;;;;;5036134;28;20021;-79
2024/02/21 04:18:33;;;;;;;8.20;5.18;;;12.70;90.50;;;;;;5035139;28;20040;-79
2024/02/21 04:20:59;;;;;;;8.05;5.50;;;12.80;90.50;;;;;;5036257;28;20018;-79
2024/02/21 04:23:24;;;;;;;8.18;5.20;;;12.70;90.50;;;;;;5034979;28;20049;-78
2024/02/21 04:25:50;;;;;;;8.82;5.50;;;12.80;90.50;;;;;;5034907;28;20493;-78
2024/02/21 04:28:15;;;;;;;8.32;5.38;;;12.80;90.50;;;;;;5031538;28;20025;-81
2024/02/21 04:30:41;;;;;;;9.15;5.63;;;12.80;90.50;;;;;;5015997;28;20040;-82
2024/02/21 04:33:06;;;;;;;8.23;5.00;;;12.80;90.50;;;;;;5034100;28;20033;-81
2024/02/21 04:35:32;;;;;;;8.55;5.00;;;12.70;90.50;;;;;;5038724;28;20026;-81
2024/02/21 04:37:57;;;;;;;8.18;4.85;;;12.80;90.50;;;;;;5020938;28;20037;-82
2024/02/21 04:40:23;;;;;;;8.38;5.00;;;12.80;90.50;;;;;;5037041;28;20471;-81
2024/02/21 04:42:48;;;;;;;9.45;5.10;;;12.80;90.50;;;;;;5037174;28;20022;-82
2024/02/21 04:45:14;;;;;;;9.55;5.38;;;12.80;90.50;;;;;;5034793;28;20017;-81
2024/02/21 04:47:39;;;;;;;8.75;5.22;;;12.80;90.50;;;;;;5034656;28;20026;-79
2024/02/21 04:50:05;;;;;;;8.38;4.80;;;12.80;90.50;;;;;;5036624;28;20033;-79
2024/02/21 04:52:34;;;;;;;9.57;5.55;;;12.80;90.60;;;;;;5034133;28;20385;-80
2024/02/21 04:55:00;;;;;;;8.45;5.07;;;12.80;90.50;;;;;;5032753;28;20026;-78
2024/02/21 04:57:25;;;;;;;8.50;5.30;;;12.70;90.40;;;;;;5033888;28;20041;-80
2024/02/21 04:59:52;;;;;;;7.78;5.18;;;12.70;90.30;;;;;;5036962;28;20750;-83
2024/02/21 05:02:19;;;;;;;8.30;5.05;;;12.80;90.40;;;;;;5034653;28;20022;-79
2024/02/21 05:04:44;;;;;;;8.85;5.22;;;12.70;90.40;;;;;;5032525;28;20222;-80
2024/02/21 05:07:11;;;;;;;8.93;5.55;;;12.70;90.40;;;;;;5033650;28;20501;-81
2024/02/21 05:09:37;;;;;;;9.25;5.45;;;12.80;90.40;;;;;;5015689;28;20117;-80
2024/02/21 05:12:03;;;;;;;8.35;5.10;;;12.70;90.30;;;;;;5012310;28;20582;-77
2024/02/21 05:14:28;;;;;;;8.98;5.50;;;12.80;90.40;;;;;;5025709;28;20083;-76
2024/02/21 05:16:54;;;;;;;9.73;6.00;;;12.70;90.30;;;;;;5031172;28;20413;-78
2024/02/21 05:19:20;;;;;;;9.27;5.40;;;12.80;90.30;;;;;;5032611;28;20265;-76
2024/02/21 05:21:45;;;;;;;8.75;5.40;;;12.80;90.40;;;;;;5034633;28;20087;-77
2024/02/21 05:24:11;;;;;;;8.57;5.47;;;12.70;90.30;;;;;;5033430;28;20018;-77
2024/02/21 05:26:37;;;;;;;9.98;5.50;;;12.80;90.20;;;;;;5035282;28;20032;-77
2024/02/21 05:29:02;;;;;;;8.40;5.40;;;12.80;90.20;;;;;;5033315;28;20056;-76
2024/02/21 05:31:52;;;;;;;8.52;5.47;;;12.80;90.20;;;;;;5034871;28;20032;-77
2024/02/21 05:34:18;;;;;;;8.40;4.97;;;12.70;90.20;;;;;;5034943;28;20021;-77
2024/02/21 05:36:44;;;;;;;10.35;5.38;;;12.70;90.20;;;;;;5034729;28;20039;-77
2024/02/21 05:39:10;;;;;;;9.27;5.45;;;12.70;90.20;;;;;;5033720;28;20390;-77
2024/02/21 05:41:35;;;;;;;9.63;6.10;;;12.80;90.20;;;;;;5034577;28;20029;-77
2024/02/21 05:44:01;;;;;;;9.18;5.57;;;12.70;90.10;;;;;;5032890;28;20014;-77
2024/02/21 05:46:26;;;;;;;8.77;5.43;;;12.80;90.20;;;;;;5034528;28;20155;-78
2024/02/21 05:48:52;;;;;;;9.82;6.63;;;12.80;90.20;;;;;;5033438;28;20048;-77
2024/02/21 05:51:17;;;;;;;9.13;5.80;;;12.70;90.00;;;;;;5033364;28;20394;-77
2024/02/21 05:53:43;;;;;;;9.45;5.78;;;12.70;90.10;;;;;;5034367;28;20068;-77
2024/02/21 05:56:12;;;;;;;8.30;5.00;;;12.70;90.20;;;;;;5034681;28;20462;-77
2024/02/21 05:58:38;;;;;;;7.93;5.03;;;12.70;90.20;;;;;;5033059;28;20056;-77
2024/02/21 06:01:04;;;;;;;8.27;5.60;;;12.70;90.20;;;;;;5033260;28;20490;-77
2024/02/21 06:03:30;;;;;;;8.55;5.70;;;12.70;90.20;;;;;;5033943;28;20022;-78
2024/02/21 06:05:56;;;;;;;8.90;5.30;;;12.70;90.30;;;;;;5034134;28;20029;-77
2024/02/21 06:08:21;;;;;;;8.55;5.55;;;12.70;90.20;;;;;;5034031;28;20051;-77
2024/02/21 06:10:48;;;;;;;9.02;5.72;;;12.80;90.40;;;;;;5034050;28;20087;-77
2024/02/21 06:13:14;;;;;;;8.73;5.32;;;12.80;90.40;;;;;;5032822;28;20029;-77
2024/02/21 06:15:39;;;;;;;8.30;5.45;;;12.80;90.30;;;;;;5034291;28;20032;-77
2024/02/21 06:18:05;;;;;;;8.93;5.70;;;12.70;90.30;;;;;;5033835;28;20060;-77
2024/02/21 06:20:30;;;;;;;8.15;5.30;;;12.70;90.30;;;;;;5032360;28;20025;-77
2024/02/21 06:22:56;;;;;;;8.20;5.30;;;12.70;90.30;;;;;;5032440;28;20108;-77
2024/02/21 06:25:22;;;;;;;8.25;5.55;;;12.70;90.40;;;;;;5032588;28;20504;-77
2024/02/21 06:27:47;;;;;;;7.78;5.10;;;12.70;90.40;;;;;;5032570;28;20028;-77
2024/02/21 06:30:13;;;;;;;8.50;5.28;;;12.70;90.30;;;;;;5032895;28;20482;-77
2024/02/21 06:32:38;;;;;;;8.45;5.18;;;12.70;90.40;;;;;;5032124;28;20025;-77
2024/02/21 06:35:05;;;;;;;8.55;5.68;;;12.70;90.40;;;;;;5032571;28;20409;-77
2024/02/21 06:37:31;;;;;;;9.13;5.28;;;12.70;90.40;;;;;;5032399;28;20025;-77
2024/02/21 06:39:57;;;;;;;9.13;5.57;;;12.70;90.40;;;;;;5032430;28;20057;-76
2024/02/21 06:42:25;;;;;;;8.70;5.20;;;12.70;90.40;;;;;;5032145;28;20056;-77
2024/02/21 06:44:50;;;;;;;7.78;5.40;;;12.70;90.40;;;;;;5033363;28;20036;-77
2024/02/21 06:47:16;;;;;;;8.48;4.95;;;12.70;90.40;;;;;;5032246;28;20105;-77
2024/02/21 06:49:42;;;;;;;8.10;5.30;;;12.80;90.40;;;;;;5032164;28;20029;-77
2024/02/21 06:52:07;;;;;;;9.57;5.65;;;12.70;90.30;;;;;;5031823;28;20025;-77
2024/02/21 06:54:33;;;;;;;8.10;4.97;;;12.70;90.30;;;;;;5033030;28;20041;-77
2024/02/21 06:56:58;;;;;;;8.32;5.47;;;12.70;90.30;;;;;;5031544;28;20022;-77
2024/02/21 06:59:24;;;;;;;7.85;5.00;;;12.70;90.30;;;;;;5031710;28;20064;-77
2024/02/21 07:01:53;;;;;;;8.48;5.32;;;12.70;90.20;;;;;;5031856;28;20481;-76
2024/02/21 07:04:19;;;;;;;8.70;5.82;;;12.70;90.30;;;;;;5032227;28;20022;-77
2024/02/21 07:06:45;;;;;;;9.52;5.63;;;12.70;90.30;;;;;;5032756;28;20517;-77
2024/02/21 07:09:10;;;;;;;8.95;5.20;;;12.70;90.30;;;;;;5032661;28;20044;-77
2024/02/21 07:11:36;;;;;;;8.50;4.97;;;12.70;90.40;;;;;;5031751;28;20028;-77
2024/02/21 07:14:01;;;;;;;8.52;5.30;;;12.70;90.30;;;;;;5031356;28;20064;-76
2024/02/21 07:16:28;;;;;;;8.18;5.03;;;12.70;90.20;;;;;;5032753;28;20470;-77
2024/02/21 07:18:54;;;;;;;8.23;5.20;;;12.70;90.30;;;;;;5031550;28;20025;-77
2024/02/21 07:21:20;;;;;;;8.50;5.45;;;12.70;90.30;;;;;;5031863;28;20032;-77
2024/02/21 07:23:45;;;;;;;7.70;4.93;;;12.70;90.30;;;;;;5031383;28;20389;-77
2024/02/21 07:26:11;;;;;;;8.82;5.15;;;12.70;90.40;;;;;;5032744;28;20475;-77
2024/02/21 07:28:36;;;;;;;9.18;5.18;;;12.70;90.30;;;;;;5032597;28;20025;-78
2024/02/21 07:31:03;;;;;;;7.43;4.70;;;12.70;90.30;;;;;;5032663;28;20029;-77
2024/02/21 07:33:30;;;;;;;8.43;5.35;;;12.70;90.30;;;;;;5031232;28;20075;-76
2024/02/21 07:35:56;;;;;;;8.27;4.93;;;12.70;90.30;;;;;;5031364;28;20032;-76
2024/02/21 07:38:22;;;;;;;8.00;4.75;;;12.70;90.30;;;;;;5031197;28;20021;-76
2024/02/21 07:40:48;;;;;;;6.80;4.50;;;12.70;90.40;;;;;;5030489;28;20116;-77
2024/02/21 07:43:13;;;;;;;8.82;5.50;;;12.70;90.40;;;;;;5026421;28;20108;-79
2024/02/21 07:45:39;;;;;;;8.02;4.80;;;12.70;90.40;;;;;;5012403;28;20030;-78
2024/02/21 07:48:05;;;;;;;7.60;4.78;;;12.70;90.30;;;;;;5012629;28;20506;-77
2024/02/21 07:50:31;;;;;;;7.82;4.43;;;12.70;90.30;;;;;;5012847;28;20408;-78
2024/02/21 07:52:57;;;;;;;7.85;5.18;;;12.70;90.40;;;;;;5012626;28;20034;-77
2024/02/21 07:55:22;;;;;;;7.38;4.82;;;12.70;90.40;;;;;;5011480;28;20029;-77
2024/02/21 07:57:48;;;;;;;8.20;4.80;;;12.70;90.30;;;;;;5011347;28;20034;-78
2024/02/21 08:00:19;;;;;;;7.70;4.65;;;12.70;90.30;;;;;;5011183;28;20030;-78
2024/02/21 08:02:48;;;;;;;7.40;4.57;;;12.70;90.30;;;;;;5011437;28;20061;-77
2024/02/21 08:05:14;;;;;;;8.60;5.15;;;12.70;90.30;;;;;;5011485;28;20112;-77
2024/02/21 08:07:39;;;;;;;7.80;4.60;;;12.80;90.30;;;;;;5012179;28;20526;-77
2024/02/21 08:10:08;;;;;;;8.07;4.70;;;12.70;90.30;;;;;;5011430;28;20129;-77
2024/02/21 08:12:33;;;;;;;6.93;4.45;;;12.70;90.30;;;;;;5012306;28;20029;-76
2024/02/21 08:14:59;;;;;;;7.80;4.65;;;12.70;90.30;;;;;;5011552;28;20026;-76
2024/02/21 08:17:24;;;;;;;7.90;4.78;;;12.70;90.30;;;;;;5012632;28;20092;-77
2024/02/21 08:19:50;;;;;;;8.10;4.88;;;12.60;90.30;;;;;;5011167;28;20471;-78
2024/02/21 08:22:16;;;;;;;7.28;4.68;;;12.70;90.30;;;;;;5011163;28;20022;-77
2024/02/21 08:24:41;;;;;;;8.15;5.00;;;12.70;90.30;;;;;;5012503;28;20454;-77
2024/02/21 08:27:07;;;;;;;8.40;4.82;;;12.70;90.30;;;;;;5011138;28;20049;-77
2024/02/21 08:29:33;;;;;;;7.10;4.55;;;12.70;90.30;;;;;;5012284;28;20088;-77
2024/02/21 08:31:58;;;;;;;7.07;4.22;;;12.80;90.40;;;;;;5011083;28;20116;-77
2024/02/21 08:34:23;;;;;;;7.68;4.63;;;12.80;90.30;;;;;;5011197;28;20113;-76
2024/02/21 08:36:49;;;;;;;6.68;4.20;;;12.70;90.20;;;;;;5011072;28;20036;-77
2024/02/21 08:39:18;;;;;;;7.15;4.30;;;12.80;90.20;;;;;;5012826;28;20036;-77
2024/02/21 08:41:43;;;;;;;7.68;4.50;;;12.80;90.20;;;;;;5012336;28;20069;-77
2024/02/21 08:44:09;;;;;;;7.25;4.68;;;12.80;90.10;;;;;;5010905;28;20564;-78
2024/02/21 08:46:38;;;;;;;7.50;4.60;;;12.70;90.20;;;;;;5010950;28;20033;-77
2024/02/21 08:49:03;;;;;;;7.20;4.63;;;12.80;90.20;;;;;;5010857;28;20022;-77
2024/02/21 08:51:29;;;;;;;7.15;4.25;;;12.80;90.20;;;;;;5010957;28;20045;-77
2024/02/21 08:53:55;;;;;;;6.82;4.38;;;12.70;90.20;;;;;;5014645;28;20030;-77
2024/02/21 08:56:20;;;;;;;5.97;3.65;;;12.80;90.20;;;;;;5015901;28;20029;-76
2024/02/21 08:58:46;;;;;;;7.32;4.43;;;12.80;90.20;;;;;;5014454;28;20022;-77
2024/02/21 09:01:12;;;;;;;6.53;3.63;;;12.70;90.20;;;;;;5014578;28;20014;-77
2024/02/21 09:03:38;;;;;;;7.07;4.03;;;12.80;90.20;;;;;;5014384;28;20032;-77
2024/02/21 09:06:06;;;;;;;6.60;3.70;;;12.80;90.10;;;;;;5015771;28;20026;-76
2024/02/21 09:08:33;;;;;;;6.55;3.88;;;12.80;90.20;;;;;;5014017;28;20058;-77
2024/02/21 09:11:01;;;;;;;6.00;3.78;;;12.80;90.20;;;;;;5015538;28;20393;-77
2024/02/21 09:13:26;;;;;;;7.43;4.43;;;12.80;90.30;;;;;;5014240;28;20033;-78
2024/02/21 09:15:52;;;;;;;7.18;4.38;;;12.90;90.30;;;;;;5014354;28;20498;-79
2024/02/21 09:18:17;;;;;;;7.00;3.78;;;12.80;90.20;;;;;;5015305;28;20101;-78
2024/02/21 09:20:43;;;;;;;6.95;3.97;;;12.90;90.20;;;;;;5013619;28;20402;-76
2024/02/21 09:23:09;;;;;;;6.20;3.75;;;12.90;90.20;;;;;;5013671;28;20061;-76
2024/02/21 09:25:35;;;;;;;7.20;4.05;;;12.90;90.20;;;;;;5012660;28;20082;-75
2024/02/21 09:28:02;;;;;;;6.55;3.60;;;12.90;90.20;;;;;;5012590;28;20026;-77
2024/02/21 09:30:28;;;;;;;6.00;3.65;;;12.80;90.20;;;;;;5012409;28;20482;-76
2024/02/21 09:32:53;;;;;;;6.43;3.80;;;12.90;90.10;;;;;;5011974;28;20049;-76
2024/02/21 09:35:19;;;;;;;10.27;3.70;;;12.90;90.10;;;;;;5012526;28;20571;-77
2024/02/21 09:37:45;;;;;;;8.25;4.28;;;12.90;90.10;;;;;;5012593;28;20026;-77
2024/02/21 09:40:11;;;;;;;7.20;3.60;;;12.90;90.20;;;;;;5014040;28;20034;-77
2024/02/21 09:42:40;;;;;;;6.72;3.30;;;12.90;90.20;;;;;;5012403;28;20084;-77
2024/02/21 09:45:16;;;;;;;6.40;3.45;;;12.90;90.00;;;;;;5013016;28;20036;-77
2024/02/21 09:48:03;;;;;;;7.57;3.83;;;12.90;90.10;;;;;;5013532;28;20026;-78
2024/02/21 09:50:31;;;;;;;7.18;3.40;;;12.90;90.10;;;;;;5028847;28;20503;-78
2024/02/21 09:52:58;;;;;;;7.45;3.97;;;12.90;90.10;;;;;;5011776;28;20079;-77
2024/02/21 09:55:25;;;;;;;7.57;3.83;;;12.90;90.10;;;;;;5011967;28;20032;-77
2024/02/21 09:57:52;;;;;;;9.05;4.18;;;12.90;90.10;;;;;;5028243;28;20061;-76
2024/02/21 10:00:21;;;;;;;6.63;3.30;;;12.90;90.10;;;;;;5013276;28;20030;-77
2024/02/21 10:02:50;;;;;;;7.53;4.10;;;12.90;90.10;;;;;;5011781;28;20033;-77
2024/02/21 10:05:17;;;;;;;6.40;3.50;;;12.90;90.10;;;;;;5012145;28;20029;-76
2024/02/21 10:07:43;;;;;;;5.85;3.20;;;12.90;90.10;;;;;;5011399;28;20026;-77
2024/02/21 10:10:09;;;;;;;7.75;3.58;;;12.90;90.00;;;;;;5011546;28;20038;-77
2024/02/21 10:12:35;;;;;;;6.95;3.33;;;13.00;90.00;;;;;;5011349;28;20151;-78
2024/02/21 10:15:05;;;;;;;7.40;3.60;;;12.90;90.00;;;;;;5012008;28;20060;-77
2024/02/21 10:17:31;;;;;;;6.65;3.50;;;12.90;90.10;;;;;;5012639;28;20053;-79
2024/02/21 10:20:10;;;;;;;7.10;3.40;;;13.00;90.10;;;;;;5011096;28;20436;-75
2024/02/21 10:22:36;;;;;;;7.03;3.30;;;12.90;90.00;;;;;;5010979;28;20026;-76
2024/02/21 10:25:28;;;;;;;6.13;3.25;;;12.90;90.10;;;;;;5010744;28;20028;-75
2024/02/21 10:27:54;;;;;;;10.55;3.10;;;12.90;90.00;;;;;;5023361;28;20038;-76
2024/02/21 10:30:20;;;;;;;5.45;2.75;;;12.90;89.90;;;;;;5010693;28;20026;-75
2024/02/21 10:32:51;;;;;;;6.13;3.15;;;12.90;90.00;;;;;;5010246;28;20034;-77
2024/02/21 10:35:32;;;;;;;6.53;3.33;;;12.90;90.10;;;;;;5010781;28;20052;-75
2024/02/21 10:37:58;;;;;;;;;;;12.90;90.00;;;;;;5012583;28;20438;-76
2024/02/21 10:40:25;;;;;;;6.60;3.13;;;12.90;90.00;;;;;;5012120;28;19980;-76
2024/02/21 10:42:58;;;;;;;5.63;3.10;;;12.90;90.10;;;;;;5010398;28;20026;-76
2024/02/21 10:45:33;;;;;;;7.30;3.20;;;12.90;90.10;;;;;;5010596;28;20088;-75
2024/02/21 10:48:11;;;;;;;5.90;3.28;;;12.90;90.10;;;;;;5026787;28;20478;-75
2024/02/21 10:50:52;;;;;;;5.63;2.97;;;12.90;90.10;;;;;;5011632;28;20056;-75
2024/02/21 10:53:46;;;;;;;5.43;2.53;;;12.90;90.10;;;;;;5011674;28;20041;-77
2024/02/21 10:56:35;;;;;;;5.70;2.90;;;12.90;90.10;;;;;;5027176;28;20030;-75
2024/02/21 10:59:02;;;;;;;5.25;2.97;;;12.90;90.10;;;;;;5010366;28;20021;-76
2024/02/21 11:01:31;;;;;;;6.22;2.92;;;12.90;90.10;;;;;;5010450;28;20030;-75
2024/02/21 11:03:59;;;;;;;6.65;3.10;;;12.90;90.00;;;;;;5011345;28;20509;-74
2024/02/21 11:06:27;;;;;;;6.28;2.72;;;12.90;90.00;;;;;;5026501;28;20053;-75
2024/02/21 11:09:03;;;;;;;5.85;3.13;;;12.90;90.10;;;;;;5009561;28;20505;-75
2024/02/21 11:11:51;;;;;;;5.25;2.58;;;12.90;90.10;;;;;;5026681;28;20025;-75
2024/02/21 11:14:21;;;;;;;5.70;2.83;;;12.90;90.10;;;;;;5026652;28;20454;-76
2024/02/21 11:16:47;;;;;;;5.78;3.00;;;12.80;90.10;;;;;;5009350;28;20030;-75
2024/02/21 11:19:18;;;;;;;5.75;2.97;;;12.90;90.10;;;;;;5036130;28;20091;-75
2024/02/21 11:21:44;;;;;;;5.25;2.50;;;12.90;90.10;;;;;;5031104;28;20036;-76
2024/02/21 11:24:09;;;;;;;4.35;2.50;;;12.90;90.10;;;;;;5031662;28;20452;-76
2024/02/21 11:26:37;;;;;;;5.53;2.80;;;12.90;90.10;;;;;;5030463;28;20035;-76
2024/02/21 11:29:09;;;;;;;6.07;3.05;;;12.90;90.10;;;;;;5031983;28;20641;-76
2024/02/21 11:31:41;;;;;;;5.18;2.72;;;12.90;90.10;;;;;;5030658;28;20022;-77
2024/02/21 11:34:11;;;;;;;6.13;2.47;;;12.90;90.10;;;;;;5031303;28;20022;-75
2024/02/21 11:36:46;;;;;;;4.38;2.30;;;12.90;90.00;;;;;;5030357;28;20021;-76
2024/02/21 11:39:11;;;;;;;5.20;2.90;;;12.90;89.80;;;;;;5031028;28;20033;-77
2024/02/21 11:41:36;;;;;;;5.32;2.65;;;12.90;89.90;;;;;;5030677;28;20378;-78
2024/02/21 11:44:03;;;;;;;5.00;2.63;;;12.90;89.80;;;;;;5031643;28;20029;-78
2024/02/21 11:46:29;;;;;;;5.43;2.75;;;12.90;90.00;;;;;;5030520;28;20041;-76
2024/02/21 11:48:54;;;;;;;5.85;2.50;;;12.90;90.00;;;;;;5030620;28;20472;-76
2024/02/21 11:51:26;;;;;;;5.85;2.75;;;12.90;90.10;;;;;;5030261;28;20021;-78
2024/02/21 11:53:52;;;;;;;;;;;12.90;90.00;;;;;;5030581;28;20032;-78
2024/02/21 11:56:19;;;;;;;5.18;2.67;;;12.90;89.90;;;;;;5030606;28;20293;-77
2024/02/21 11:58:47;;;;;;;5.85;2.75;;;12.90;89.90;;;;;;5030489;28;20057;-78
2024/02/21 12:01:13;;;;;;;6.63;2.97;;;12.90;89.80;;;;;;5030434;28;20033;-78
2024/02/21 12:03:41;;;;;;;5.65;2.90;;;12.90;89.90;;;;;;5031808;28;20026;-78
2024/02/21 12:06:07;;;;;;;5.88;3.30;;;12.90;89.60;;;;;;5032073;28;20071;-77
2024/02/21 12:08:45;;;;;;;5.43;3.05;;;12.90;89.80;;;;;;5030033;28;20116;-77
2024/02/21 12:11:21;;;;;;;6.05;3.10;;;12.90;89.70;;;;;;5024339;28;20088;-76
2024/02/21 12:13:47;;;;;;;7.28;2.88;;;12.90;89.90;;;;;;5044861;28;20046;-78
2024/02/21 12:16:17;;;;;;;6.88;3.25;;;12.80;89.90;;;;;;5046827;28;20024;-77
2024/02/21 12:18:43;;;;;;;5.43;3.08;;;12.90;90.00;;;;;;5030375;28;20037;-76
2024/02/21 12:21:10;;;;;;;5.47;3.10;;;12.90;89.90;;;;;;5030268;28;20025;-77
2024/02/21 12:23:38;;;;;;;6.13;3.10;;;12.90;89.90;;;;;;5030034;28;20112;-76
2024/02/21 12:26:04;;;;;;;5.03;2.97;;;12.90;89.90;;;;;;5030029;28;20450;-77
2024/02/21 12:28:30;;;;;;;6.40;3.28;;;12.90;89.70;;;;;;5037586;28;20031;-77
2024/02/21 12:30:55;;;;;;;5.68;3.05;;;12.80;89.70;;;;;;5053297;28;20021;-75
2024/02/21 12:33:22;;;;;;;5.82;2.97;;;12.80;89.70;;;;;;5053378;28;20074;-77
2024/02/21 12:35:49;;;;;;;5.60;3.00;;;12.90;89.90;;;;;;5053503;28;20108;-77
2024/02/21 12:38:14;;;;;;;5.70;3.05;;;12.90;89.80;;;;;;5053641;28;20028;-77
2024/02/21 12:40:40;;;;;;;5.90;3.17;;;12.80;89.70;;;;;;5053197;28;20040;-77
2024/02/21 12:43:05;;;;;;;5.25;2.85;;;12.90;89.70;;;;;;5052883;28;20023;-76
2024/02/21 12:45:31;;;;;;;8.07;2.90;;;12.80;89.60;;;;;;5054773;28;20814;-77